createdAt,value
2023-04-27T00:01:34.909Z,8.42
2023-04-27T00:04:20.994Z,8.43
2023-04-27T00:07:06.704Z,8.43
2023-04-27T00:09:52.229Z,8.45
2023-04-27T00:12:38.065Z,8.44
2023-04-27T00:15:24.006Z,8.45
2023-04-27T00:18:09.721Z,8.44
2023-04-27T00:20:55.589Z,8.44
2023-04-27T00:23:41.249Z,8.43
2023-04-27T00:26:27.072Z,8.42
2023-04-27T00:29:12.452Z,8.41
2023-04-27T00:31:58.173Z,8.41
2023-04-27T00:34:43.469Z,8.40
2023-04-27T00:37:28.986Z,8.41
2023-04-27T00:40:14.536Z,8.40
2023-04-27T00:43:00.156Z,8.42
2023-04-27T00:45:46.463Z,8.40
2023-04-27T00:48:31.711Z,8.40
2023-04-27T00:51:17.103Z,8.39
2023-04-27T00:54:02.688Z,8.42
2023-04-27T00:56:50.930Z,8.40
2023-04-27T00:59:36.572Z,8.42
2023-04-27T01:02:22.949Z,8.42
2023-04-27T01:05:09.196Z,8.44
2023-04-27T01:07:55.498Z,8.44
2023-04-27T01:10:41.474Z,8.44
2023-04-27T01:13:29.073Z,8.44
2023-04-27T01:16:14.914Z,8.44
2023-04-27T01:19:00.733Z,8.44
2023-04-27T01:21:46.719Z,8.44
2023-04-27T01:24:32.080Z,8.44
2023-04-27T01:27:17.458Z,8.44
2023-04-27T01:30:03.550Z,8.44
2023-04-27T01:32:52.864Z,8.45
2023-04-27T01:35:38.372Z,8.46
2023-04-27T01:38:24.349Z,8.47
2023-04-27T01:41:09.702Z,8.48
2023-04-27T01:43:55.114Z,8.50
2023-04-27T01:46:41.280Z,8.51
2023-04-27T01:49:26.712Z,8.51
2023-04-27T01:52:12.400Z,8.52
2023-04-27T01:54:57.787Z,8.55
2023-04-27T01:57:43.847Z,8.56
2023-04-27T02:00:30.993Z,8.58
2023-04-27T02:03:18.288Z,8.58
2023-04-27T02:06:04.480Z,8.58
2023-04-27T02:08:50.252Z,8.58
2023-04-27T02:11:35.708Z,8.57
2023-04-27T02:14:21.882Z,8.58
2023-04-27T02:17:07.325Z,8.56
2023-04-27T02:19:52.655Z,8.57
2023-04-27T02:22:43.228Z,8.56
2023-04-27T02:25:28.940Z,8.59
2023-04-27T02:28:15.134Z,8.57
2023-04-27T02:31:01.517Z,8.57
2023-04-27T02:33:47.082Z,8.58
2023-04-27T02:36:32.466Z,8.58
2023-04-27T02:39:18.092Z,8.59
2023-04-27T02:42:04.103Z,8.61
2023-04-27T02:44:49.726Z,8.62
2023-04-27T02:47:35.479Z,8.62
2023-04-27T02:50:20.987Z,8.63
2023-04-27T02:53:06.359Z,8.62
2023-04-27T02:55:51.690Z,8.65
2023-04-27T02:58:37.306Z,8.66
2023-04-27T03:01:23.010Z,8.68
2023-04-27T03:04:09.331Z,8.70
2023-04-27T03:06:55.515Z,8.72
2023-04-27T03:09:40.885Z,8.73
2023-04-27T03:12:26.357Z,8.74
2023-04-27T03:15:11.751Z,8.76
2023-04-27T03:17:57.203Z,8.77
2023-04-27T03:20:42.921Z,8.80
2023-04-27T03:23:28.246Z,8.83
2023-04-27T03:26:15.101Z,8.85
2023-04-27T03:29:01.080Z,8.85
2023-04-27T03:31:47.675Z,8.85
2023-04-27T03:34:33.722Z,8.87
2023-04-27T03:37:19.579Z,8.90
2023-04-27T03:40:07.673Z,8.89
2023-04-27T03:42:53.421Z,8.91
2023-04-27T03:45:38.739Z,8.92
2023-04-27T03:48:24.143Z,8.91
2023-04-27T03:51:12.147Z,8.89
2023-04-27T03:53:57.565Z,8.89
2023-04-27T03:56:44.595Z,8.87
2023-04-27T03:59:30.544Z,8.90
2023-04-27T04:02:16.305Z,8.89
2023-04-27T04:05:02.319Z,8.87
2023-04-27T04:07:47.537Z,8.88
2023-04-27T04:10:33.451Z,8.85
2023-04-27T04:13:18.937Z,8.85
2023-04-27T04:16:09.488Z,8.84
2023-04-27T04:18:55.508Z,8.82
2023-04-27T04:21:41.349Z,8.79
2023-04-27T04:24:27.617Z,8.80
2023-04-27T04:27:13.452Z,8.77
2023-04-27T04:30:00.422Z,8.77
2023-04-27T04:32:46.138Z,8.75
2023-04-27T04:35:33.185Z,8.74
2023-04-27T04:38:18.719Z,8.74
2023-04-27T04:41:04.630Z,8.69
2023-04-27T04:43:51.906Z,8.68
2023-04-27T04:46:37.561Z,8.68
2023-04-27T04:49:22.917Z,8.69
2023-04-27T04:52:08.928Z,8.71
2023-04-27T04:54:54.562Z,8.74
2023-04-27T04:57:40.099Z,8.76
2023-04-27T05:00:25.629Z,8.77
2023-04-27T05:03:11.557Z,8.81
2023-04-27T05:05:57.350Z,8.84
2023-04-27T05:08:42.718Z,8.88
2023-04-27T05:11:28.055Z,8.91
2023-04-27T05:14:13.557Z,8.92
2023-04-27T05:16:58.996Z,8.95
2023-04-27T05:19:44.803Z,8.97
2023-04-27T05:22:30.203Z,8.98
2023-04-27T05:25:15.750Z,8.99
2023-04-27T05:28:01.226Z,9.02
2023-04-27T05:30:46.927Z,9.03
2023-04-27T05:33:32.714Z,9.04
2023-04-27T05:36:18.530Z,9.07
2023-04-27T05:39:03.902Z,9.07
2023-04-27T05:41:49.626Z,9.07
2023-04-27T05:44:35.134Z,9.08
2023-04-27T05:47:20.744Z,9.09
2023-04-27T05:50:06.926Z,9.11
2023-04-27T05:52:52.508Z,9.11
2023-04-27T05:55:39.128Z,9.12
2023-04-27T05:58:24.869Z,9.13
2023-04-27T06:01:10.734Z,9.13
2023-04-27T06:03:56.307Z,9.14
2023-04-27T06:06:42.430Z,9.13
2023-04-27T06:09:28.096Z,9.16
2023-04-27T06:12:13.476Z,9.17
2023-04-27T06:14:59.202Z,9.17
2023-04-27T06:17:45.961Z,9.19
2023-04-27T06:20:31.771Z,9.20
2023-04-27T06:23:17.063Z,9.19
2023-04-27T06:26:02.458Z,9.25
2023-04-27T06:28:48.081Z,9.23
2023-04-27T06:31:34.400Z,9.22
2023-04-27T06:34:20.034Z,9.22
2023-04-27T06:37:05.587Z,9.23
2023-04-27T06:39:51.520Z,9.21
2023-04-27T06:42:37.244Z,9.23
2023-04-27T06:45:22.698Z,9.23
2023-04-27T06:48:08.215Z,9.26
2023-04-27T06:50:53.674Z,9.29
2023-04-27T06:53:39.955Z,9.30
2023-04-27T06:56:25.263Z,9.31
2023-04-27T06:59:11.205Z,9.32
2023-04-27T07:01:57.108Z,9.35
2023-04-27T07:04:43.597Z,9.36
2023-04-27T07:07:29.185Z,9.36
2023-04-27T07:10:15.101Z,9.37
2023-04-27T07:13:00.890Z,9.37
2023-04-27T07:15:46.504Z,9.37
2023-04-27T07:18:31.952Z,9.36
2023-04-27T07:21:17.427Z,9.37
2023-04-27T07:24:04.188Z,9.38
2023-04-27T07:26:49.625Z,9.40
2023-04-27T07:29:35.437Z,9.38
2023-04-27T07:32:22.108Z,9.41
2023-04-27T07:35:09.735Z,9.43
2023-04-27T07:37:56.729Z,9.46
2023-04-27T07:40:43.826Z,9.46
2023-04-27T07:43:32.573Z,9.48
2023-04-27T07:46:19.045Z,9.55
2023-04-27T07:49:04.522Z,9.59
2023-04-27T07:51:49.956Z,9.61
2023-04-27T07:54:35.443Z,9.65
2023-04-27T07:57:21.223Z,9.74
2023-04-27T08:00:11.383Z,9.80
2023-04-27T08:02:59.715Z,9.83
2023-04-27T08:05:46.308Z,9.85
2023-04-27T08:08:32.280Z,9.89
2023-04-27T08:11:17.866Z,9.95
2023-04-27T08:14:03.433Z,9.94
2023-04-27T08:16:49.061Z,9.97
2023-04-27T08:19:34.561Z,9.96
2023-04-27T08:22:20.177Z,9.97
2023-04-27T08:25:07.376Z,10.00
2023-04-27T08:27:52.701Z,10.02
2023-04-27T08:30:38.184Z,10.07
2023-04-27T08:33:23.322Z,10.09
2023-04-27T08:36:08.914Z,10.11
2023-04-27T08:38:54.825Z,10.17
2023-04-27T08:41:44.010Z,10.25
2023-04-27T08:44:29.902Z,10.34
2023-04-27T08:47:15.590Z,10.41
2023-04-27T08:50:00.767Z,10.47
2023-04-27T08:52:46.937Z,10.50
2023-04-27T08:55:32.860Z,10.51
2023-04-27T08:58:18.285Z,10.51
2023-04-27T09:01:07.912Z,10.49
2023-04-27T09:03:58.360Z,10.55
2023-04-27T09:06:45.591Z,10.66
2023-04-27T09:09:31.094Z,10.82
2023-04-27T09:12:22.700Z,10.92
2023-04-27T09:15:09.046Z,10.99
2023-04-27T09:17:58.639Z,11.01
2023-04-27T09:20:46.396Z,10.98
2023-04-27T09:23:33.967Z,10.92
2023-04-27T09:26:24.449Z,10.85
2023-04-27T09:29:10.472Z,10.82
2023-04-27T09:31:56.023Z,10.77
2023-04-27T09:34:42.194Z,10.74
2023-04-27T09:37:28.461Z,10.69
2023-04-27T09:40:14.442Z,10.60
2023-04-27T09:43:04.213Z,10.56
2023-04-27T09:45:50.809Z,10.46
2023-04-27T09:48:38.885Z,10.43
2023-04-27T09:51:24.683Z,10.40
2023-04-27T09:54:13.659Z,10.41
2023-04-27T09:57:27.883Z,10.49
2023-04-27T10:00:42.910Z,10.55
2023-04-27T10:03:39.128Z,10.64
2023-04-27T10:07:03.126Z,10.70
2023-04-27T10:09:53.822Z,10.70
2023-04-27T10:12:39.544Z,10.70
2023-04-27T10:15:30.295Z,10.72
2023-04-27T10:18:27.265Z,10.68
2023-04-27T10:21:12.991Z,10.66
2023-04-27T10:24:08.824Z,10.74
2023-04-27T10:27:02.792Z,10.81
2023-04-27T10:29:48.756Z,10.86
2023-04-27T10:32:34.699Z,10.92
2023-04-27T10:35:22.241Z,10.98
2023-04-27T10:38:31.510Z,11.06
2023-04-27T10:41:16.998Z,10.94
2023-04-27T10:44:17.917Z,11.02
2023-04-27T10:47:19.984Z,11.10
2023-04-27T10:50:06.722Z,11.06
2023-04-27T10:52:52.345Z,11.02
2023-04-27T10:55:38.223Z,10.93
2023-04-27T10:58:26.545Z,10.95
2023-04-27T11:01:26.018Z,10.85
2023-04-27T11:04:12.180Z,10.82
2023-04-27T11:06:58.794Z,10.75
2023-04-27T11:09:44.283Z,10.76
2023-04-27T11:12:32.468Z,10.77
2023-04-27T11:15:17.839Z,10.80
2023-04-27T11:18:07.215Z,10.82
2023-04-27T11:20:54.742Z,10.98
2023-04-27T11:23:41.381Z,11.17
2023-04-27T11:26:26.867Z,11.24
2023-04-27T11:29:14.049Z,11.31
2023-04-27T11:32:00.589Z,11.40
2023-04-27T11:34:55.119Z,11.46
2023-04-27T11:37:42.509Z,11.51
2023-04-27T11:40:29.421Z,11.58
2023-04-27T11:43:15.798Z,11.62
2023-04-27T11:46:06.118Z,11.67
2023-04-27T11:48:52.019Z,11.69
2023-04-27T11:51:37.898Z,11.65
2023-04-27T11:54:29.316Z,11.59
2023-04-27T11:57:14.562Z,11.54
2023-04-27T12:00:02.293Z,11.50
2023-04-27T12:02:58.833Z,11.42
2023-04-27T12:05:52.268Z,11.40
2023-04-27T12:08:38.143Z,11.36
2023-04-27T12:11:30.262Z,11.27
2023-04-27T12:14:15.857Z,11.18
2023-04-27T12:17:01.593Z,11.06
2023-04-27T12:19:46.915Z,11.02
2023-04-27T12:22:32.559Z,10.98
2023-04-27T12:25:19.810Z,10.95
2023-04-27T12:28:05.131Z,10.97
2023-04-27T12:30:51.110Z,10.99
2023-04-27T12:33:36.376Z,11.01
2023-04-27T12:36:22.004Z,11.02
2023-04-27T12:39:21.968Z,11.03
2023-04-27T12:42:07.347Z,11.03
2023-04-27T12:44:53.756Z,11.08
2023-04-27T12:47:58.220Z,11.06
2023-04-27T12:50:46.236Z,11.09
2023-04-27T12:53:32.853Z,11.18
2023-04-27T12:56:18.183Z,11.36
2023-04-27T12:59:04.207Z,11.59
2023-04-27T13:01:49.978Z,11.72
2023-04-27T13:04:36.710Z,11.72
2023-04-27T13:07:22.142Z,11.76
2023-04-27T13:10:07.965Z,11.75
2023-04-27T13:12:54.643Z,11.69
2023-04-27T13:15:40.177Z,11.64
2023-04-27T13:18:25.611Z,11.65
2023-04-27T13:21:11.918Z,11.75
2023-04-27T13:24:00.069Z,11.91
2023-04-27T13:26:46.619Z,12.00
2023-04-27T13:29:32.095Z,12.13
2023-04-27T13:32:17.494Z,12.38
2023-04-27T13:35:03.872Z,12.64
2023-04-27T13:37:49.458Z,12.91
2023-04-27T13:40:35.068Z,12.92
2023-04-27T13:43:20.532Z,12.84
2023-04-27T13:46:05.948Z,12.57
2023-04-27T13:48:51.654Z,12.33
2023-04-27T13:51:37.044Z,12.19
2023-04-27T13:54:22.353Z,12.08
2023-04-27T13:57:07.749Z,12.06
2023-04-27T13:59:53.651Z,12.23
2023-04-27T14:02:39.404Z,12.61
2023-04-27T14:05:25.358Z,12.92
2023-04-27T14:08:11.676Z,13.24
2023-04-27T14:10:58.923Z,13.41
2023-04-27T14:13:44.461Z,13.31
2023-04-27T14:16:30.066Z,13.09
2023-04-27T14:19:16.172Z,13.13
2023-04-27T14:22:01.587Z,13.06
2023-04-27T14:24:47.246Z,12.86
2023-04-27T14:27:32.580Z,12.68
2023-04-27T14:30:17.910Z,12.55
2023-04-27T14:33:03.627Z,12.47
2023-04-27T14:35:49.161Z,12.41
2023-04-27T14:38:34.533Z,12.42
2023-04-27T14:41:19.868Z,12.53
2023-04-27T14:44:08.101Z,12.68
2023-04-27T14:46:53.947Z,12.67
2023-04-27T14:49:39.615Z,12.69
2023-04-27T14:52:25.064Z,12.79
2023-04-27T14:55:11.771Z,12.99
2023-04-27T14:57:57.342Z,13.23
2023-04-27T15:00:43.543Z,13.46
2023-04-27T15:03:29.421Z,13.65
2023-04-27T15:06:14.935Z,13.72
2023-04-27T15:09:00.240Z,14.19
2023-04-27T15:11:45.583Z,14.74
2023-04-27T15:14:31.209Z,15.08
2023-04-27T15:17:16.984Z,15.20
2023-04-27T15:20:02.863Z,14.87
2023-04-27T15:22:48.352Z,14.54
2023-04-27T15:25:33.762Z,14.28
2023-04-27T15:28:19.565Z,14.16
2023-04-27T15:31:04.879Z,14.09
2023-04-27T15:33:51.018Z,14.14
2023-04-27T15:36:36.601Z,14.01
2023-04-27T15:39:22.119Z,13.82
2023-04-27T15:42:07.714Z,13.60
2023-04-27T15:44:53.574Z,13.51
2023-04-27T15:47:38.991Z,13.44
2023-04-27T15:50:24.962Z,13.37
2023-04-27T15:53:10.216Z,13.28
2023-04-27T15:55:55.620Z,13.15
2023-04-27T15:58:41.040Z,13.08
2023-04-27T16:01:26.515Z,12.99
2023-04-27T16:04:12.543Z,12.95
2023-04-27T16:06:58.236Z,12.88
2023-04-27T16:09:43.899Z,12.80
2023-04-27T16:12:29.820Z,12.72
2023-04-27T16:15:15.146Z,12.67
2023-04-27T16:18:00.752Z,12.72
2023-04-27T16:20:46.320Z,12.67
2023-04-27T16:23:32.106Z,12.60
2023-04-27T16:26:17.371Z,12.55
2023-04-27T16:29:02.825Z,12.42
2023-04-27T16:31:53.332Z,12.44
2023-04-27T16:34:39.078Z,12.55
2023-04-27T16:37:24.804Z,12.55
2023-04-27T16:40:11.044Z,12.54
2023-04-27T16:42:56.523Z,12.50
2023-04-27T16:45:42.114Z,12.49
2023-04-27T16:48:27.587Z,12.55
2023-04-27T16:51:13.300Z,12.59
2023-04-27T16:53:59.170Z,12.61
2023-04-27T16:56:45.946Z,12.67
2023-04-27T16:59:31.511Z,12.72
2023-04-27T17:02:24.428Z,12.78
2023-04-27T17:05:12.099Z,12.79
2023-04-27T17:07:58.102Z,12.78
2023-04-27T17:10:45.497Z,12.80
2023-04-27T17:13:31.859Z,12.78
2023-04-27T17:16:18.314Z,12.77
2023-04-27T17:19:04.029Z,12.71
2023-04-27T17:21:49.603Z,12.69
2023-04-27T17:24:34.952Z,12.68
2023-04-27T17:27:20.532Z,12.69
2023-04-27T17:30:08.290Z,12.61
2023-04-27T17:32:55.020Z,12.47
2023-04-27T17:35:44.484Z,12.28
2023-04-27T17:38:30.019Z,12.16
2023-04-27T17:41:15.464Z,11.96
2023-04-27T17:44:00.806Z,11.92
2023-04-27T17:46:47.522Z,11.80
2023-04-27T17:49:33.066Z,11.70
2023-04-27T17:52:18.438Z,11.63
2023-04-27T17:55:03.931Z,11.56
2023-04-27T17:57:49.944Z,11.50
2023-04-27T18:00:35.783Z,11.41
2023-04-27T18:03:22.149Z,11.35
2023-04-27T18:06:08.222Z,11.31
2023-04-27T18:08:53.614Z,11.26
2023-04-27T18:11:39.093Z,11.23
2023-04-27T18:14:24.800Z,11.13
2023-04-27T18:17:10.251Z,11.11
2023-04-27T18:20:06.955Z,11.10
2023-04-27T18:22:52.762Z,11.10
2023-04-27T18:25:38.144Z,11.11
2023-04-27T18:28:23.342Z,11.08
2023-04-27T18:31:18.753Z,11.07
2023-04-27T18:34:04.137Z,11.06
2023-04-27T18:36:51.947Z,11.06
2023-04-27T18:39:37.638Z,11.02
2023-04-27T18:42:23.643Z,11.01
2023-04-27T18:45:09.507Z,11.02
2023-04-27T18:47:54.914Z,11.03
2023-04-27T18:50:40.865Z,10.96
2023-04-27T18:53:27.917Z,10.92
2023-04-27T18:56:14.672Z,10.84
2023-04-27T18:59:01.158Z,10.75
2023-04-27T19:01:47.018Z,10.72
2023-04-27T19:04:33.805Z,10.68
2023-04-27T19:07:19.501Z,10.63
2023-04-27T19:10:05.332Z,10.59
2023-04-27T19:12:51.386Z,10.58
2023-04-27T19:15:36.872Z,10.57
2023-04-27T19:18:22.161Z,10.54
2023-04-27T19:21:09.952Z,10.52
2023-04-27T19:23:56.042Z,10.50
2023-04-27T19:26:41.751Z,10.45
2023-04-27T19:29:27.735Z,10.40
2023-04-27T19:32:13.082Z,10.37
2023-04-27T19:34:59.923Z,10.33
2023-04-27T19:37:45.514Z,10.29
2023-04-27T19:40:31.157Z,10.26
2023-04-27T19:43:17.509Z,10.25
2023-04-27T19:46:03.163Z,10.23
2023-04-27T19:48:48.478Z,10.24
2023-04-27T19:51:34.135Z,10.21
2023-04-27T19:54:19.837Z,10.18
2023-04-27T19:57:05.469Z,10.16
2023-04-27T19:59:51.155Z,10.14
2023-04-27T20:02:36.566Z,10.13
2023-04-27T20:05:22.402Z,10.10
2023-04-27T20:08:08.440Z,10.07
2023-04-27T20:10:54.273Z,10.05
2023-04-27T20:13:39.968Z,10.01
2023-04-27T20:16:25.870Z,9.99
2023-04-27T20:19:12.547Z,9.98
2023-04-27T20:21:58.019Z,9.98
2023-04-27T20:24:43.773Z,9.98
2023-04-27T20:27:29.693Z,9.99
2023-04-27T20:30:15.326Z,10.00
2023-04-27T20:35:47.243Z,9.99
2023-04-27T20:38:32.936Z,9.98
2023-04-27T20:41:18.334Z,9.96
2023-04-27T20:44:03.804Z,9.96
2023-04-27T20:46:49.396Z,9.95
2023-04-27T20:49:35.783Z,9.90
2023-04-27T20:52:21.836Z,9.90
2023-04-27T20:55:07.623Z,9.87
2023-04-27T20:57:53.137Z,9.85
2023-04-27T21:00:38.618Z,9.83
2023-04-27T21:03:24.326Z,9.82
2023-04-27T21:06:09.763Z,9.80
2023-04-27T21:08:55.234Z,9.79
2023-04-27T21:11:40.603Z,9.81
2023-04-27T21:14:25.856Z,9.81
2023-04-27T21:17:11.547Z,9.82
2023-04-27T21:19:58.190Z,9.82
2023-04-27T21:22:43.738Z,9.80
2023-04-27T21:25:29.226Z,9.78
2023-04-27T21:28:14.821Z,9.79
2023-04-27T21:31:00.743Z,9.78
2023-04-27T21:33:46.126Z,9.76
2023-04-27T21:36:33.208Z,9.75
2023-04-27T21:39:18.768Z,9.74
2023-04-27T21:42:04.456Z,9.73
2023-04-27T21:44:50.104Z,9.74
2023-04-27T21:47:35.305Z,9.72
2023-04-27T21:50:20.970Z,9.71
2023-04-27T21:53:06.607Z,9.71
2023-04-27T21:55:52.098Z,9.69
2023-04-27T21:58:37.494Z,9.68
2023-04-27T22:01:22.986Z,9.67
2023-04-27T22:04:09.857Z,9.68
2023-04-27T22:06:55.789Z,9.67
2023-04-27T22:09:41.570Z,9.66
2023-04-27T22:12:27.300Z,9.67
2023-04-27T22:15:12.444Z,9.67
2023-04-27T22:17:58.097Z,9.64
2023-04-27T22:20:44.004Z,9.64
2023-04-27T22:23:30.748Z,9.64
2023-04-27T22:26:16.136Z,9.64
2023-04-27T22:29:01.681Z,9.64
2023-04-27T22:31:47.247Z,9.64
2023-04-27T22:34:33.756Z,9.66
2023-04-27T22:37:19.164Z,9.66
2023-04-27T22:40:06.014Z,9.65
2023-04-27T22:42:52.167Z,9.62
2023-04-27T22:45:38.876Z,9.64
2023-04-27T22:48:25.001Z,9.62
2023-04-27T22:51:10.986Z,9.61
2023-04-27T22:53:56.258Z,9.61
2023-04-27T22:56:41.832Z,9.60
2023-04-27T22:59:27.402Z,9.59
2023-04-27T23:02:12.814Z,9.58
2023-04-27T23:04:59.004Z,9.59
2023-04-27T23:07:46.292Z,9.59
2023-04-27T23:10:32.038Z,9.57
2023-04-27T23:13:17.812Z,9.56
2023-04-27T23:16:03.617Z,9.57
2023-04-27T23:18:49.697Z,9.58
2023-04-27T23:21:35.265Z,9.56
2023-04-27T23:24:20.667Z,9.55
2023-04-27T23:27:06.376Z,9.52
2023-04-27T23:29:51.972Z,9.52
2023-04-27T23:32:37.721Z,9.51
2023-04-27T23:35:22.978Z,9.50
2023-04-27T23:38:08.255Z,9.48
2023-04-27T23:40:53.770Z,9.48
2023-04-27T23:43:39.711Z,9.46
2023-04-27T23:46:25.623Z,9.44
2023-04-27T23:49:11.130Z,9.44
2023-04-27T23:51:56.571Z,9.44
2023-04-27T23:54:42.114Z,9.45
2023-04-27T23:57:27.470Z,9.48
